ラロトンガ の空港の天気 - METARとTAF

ラロトンガ国際空港 ( NCRG / RAR ) - クック諸島 アバルア (ラロトンガ島)
飛行場実況気象(Metar)
観測時間09/18 12:00 CKT (09/18 22:00 UTC)
風向・風速東 8m/s
視程10km以上
天気現象
少しの雲 雲底高度 850m
気温27℃
湿度66%
気圧1019hPa
METARNCRG 182200Z AUTO 08015KT 050V110 9999 FEW028/// 27/20 Q1019
過去の天気等 Google飛行場航空写真 Wunderground天気予報

過去48時間のMETAR

飛行場予報(TAF)
発表時間: 9/18 07:07 CKT (9/18 17:07 UTC)
予報対象時間: 18日8時 CKT ~ 19日8時 CKT
風向・風速東 3m/s
視程10km以上
少しの雲 雲底高度 820m
TAF NCRG 181707Z 1818/1918 10006KT 9999 FEW027